Time;durP1;ratioP1;P1;durP2;ratioP2;P2;SDS_P1;SDS_P2;PMS_P1;PMS_P2;Temp;Humidity;BMP_temperature;BMP_pressure;BME280_temperature;BME280_humidity;BME280_pressure;Samples;Min_cycle;Max_cycle;Signal;HPM_P1;HPM_P2
2021/10/28 00:14:34;;;;;;;17.80;10.93;;;;;;;3.58;100.00;99563.88;5008245;28;20458;-57
2021/10/28 00:17:08;;;;;;;19.03;10.23;;;;;;;3.53;100.00;99552.75;5015829;28;20411;-57
2021/10/28 00:19:33;;;;;;;17.53;10.47;;;;;;;3.54;100.00;99559.56;5009893;28;20059;-56
2021/10/28 00:21:59;;;;;;;19.50;11.20;;;;;;;3.49;100.00;99561.97;5015254;28;20037;-55
2021/10/28 00:24:24;;;;;;;14.57;10.30;;;;;;;3.48;100.00;99561.97;5007355;28;20037;-56
2021/10/28 00:26:50;;;;;;;16.17;9.87;;;;;;;3.44;100.00;99550.88;5005666;28;20111;-55
2021/10/28 00:29:18;;;;;;;15.43;10.80;;;;;;;3.41;100.00;99560.94;5004810;28;20568;-57
2021/10/28 00:31:45;;;;;;;15.30;9.77;;;;;;;3.38;100.00;99557.47;5014328;28;20031;-57
2021/10/28 00:34:13;;;;;;;17.23;10.37;;;;;;;3.33;100.00;99562.44;5005004;28;20397;-57
2021/10/28 00:36:40;;;;;;;17.03;9.50;;;;;;;3.24;100.00;99554.59;5008215;28;20042;-57
2021/10/28 00:39:08;;;;;;;13.33;9.33;;;;;;;3.23;100.00;99563.88;5009323;28;20153;-56
2021/10/28 00:41:34;;;;;;;20.40;10.50;;;;;;;3.17;100.00;99558.69;5004369;28;20034;-57
2021/10/28 00:44:01;;;;;;;16.20;10.33;;;;;;;3.17;100.00;99561.22;5009291;28;20498;-57
2021/10/28 00:46:28;;;;;;;19.97;11.33;;;;;;;3.15;100.00;99559.44;5013295;28;20035;-58
2021/10/28 00:48:55;;;;;;;15.83;10.33;;;;;;;3.09;100.00;99564.38;5017482;28;20025;-55
2021/10/28 00:51:24;;;;;;;14.90;10.10;;;;;;;3.12;100.00;99559.38;5011172;28;20029;-57
2021/10/28 00:53:50;;;;;;;18.17;11.73;;;;;;;3.02;100.00;99562.47;5005377;28;20064;-54
2021/10/28 00:56:18;;;;;;;16.07;10.27;;;;;;;2.96;100.00;99567.41;5013563;28;20053;-57
2021/10/28 00:58:43;;;;;;;19.40;12.33;;;;;;;2.90;100.00;99562.16;5014573;28;20029;-55
2021/10/28 01:01:09;;;;;;;22.10;12.20;;;;;;;2.86;100.00;99558.69;5010187;28;20109;-55
2021/10/28 01:03:37;;;;;;;15.73;11.20;;;;;;;2.84;100.00;99562.88;5008996;28;20037;-57
2021/10/28 01:06:05;;;;;;;14.53;10.47;;;;;;;2.86;100.00;99558.69;5005526;28;20476;-53
2021/10/28 01:08:31;;;;;;;18.27;10.40;;;;;;;2.75;100.00;99555.88;5011599;28;20117;-56
2021/10/28 01:10:57;;;;;;;13.80;9.40;;;;;;;2.75;100.00;99555.88;5008779;28;20072;-54
2021/10/28 01:13:24;;;;;;;17.70;10.17;;;;;;;2.74;100.00;99558.38;5008255;28;20116;-54
2021/10/28 01:15:53;;;;;;;13.67;9.40;;;;;;;2.69;100.00;99560.78;5016300;28;20041;-56
2021/10/28 01:18:18;;;;;;;13.83;10.00;;;;;;;2.65;100.00;99558.97;5003735;28;20345;-56
2021/10/28 01:20:47;;;;;;;17.77;10.60;;;;;;;2.69;100.00;99555.72;5003745;28;20034;-56
2021/10/28 01:23:13;;;;;;;17.30;10.67;;;;;;;2.65;100.00;99551.38;5011343;28;20033;-58
2021/10/28 01:25:39;;;;;;;16.03;9.90;;;;;;;2.60;100.00;99552.06;5008733;28;20162;-57
2021/10/28 01:28:14;;;;;;;16.93;10.23;;;;;;;2.58;100.00;99544.44;5015381;28;20041;-57
2021/10/28 01:30:39;;;;;;;19.27;9.90;;;;;;;2.57;100.00;99542.72;5001082;28;20088;-54
2021/10/28 01:33:05;;;;;;;15.33;10.10;;;;;;;2.58;100.00;99541.91;5000908;28;20636;-57
2021/10/28 01:35:30;;;;;;;15.43;11.47;;;;;;;2.55;100.00;99543.47;5012389;28;20040;-56
2021/10/28 01:37:56;;;;;;;15.23;10.07;;;;;;;2.58;100.00;99546.13;5013969;28;20124;-55
2021/10/28 01:40:22;;;;;;;19.93;9.63;;;;;;;2.59;100.00;99541.09;5007696;28;20026;-58
2021/10/28 01:42:50;;;;;;;16.47;9.10;;;;;;;2.64;100.00;99544.59;5005587;28;20551;-54
2021/10/28 01:45:17;;;;;;;14.07;9.57;;;;;;;2.60;100.00;99542.81;4999667;28;20499;-58
2021/10/28 01:47:42;;;;;;;13.67;8.83;;;;;;;2.59;100.00;99538.56;5005534;28;20122;-54
2021/10/28 01:50:09;;;;;;;14.83;9.37;;;;;;;2.59;100.00;99541.09;5010371;28;20309;-57
2021/10/28 01:52:38;;;;;;;16.23;9.40;;;;;;;2.55;100.00;99538.41;5008948;28;20026;-56
2021/10/28 01:55:09;;;;;;;14.63;9.03;;;;;;;2.53;100.00;99543.47;5010528;28;20112;-57
2021/10/28 01:57:34;;;;;;;16.37;9.37;;;;;;;2.48;100.00;99542.47;5003818;28;20053;-57
2021/10/28 02:00:00;;;;;;;15.10;9.73;;;;;;;2.42;100.00;99539.75;5004728;28;20034;-57
2021/10/28 02:02:25;;;;;;;17.87;9.27;;;;;;;2.39;100.00;99539.69;5017707;28;20066;-58
2021/10/28 02:04:50;;;;;;;18.03;8.80;;;;;;;2.37;100.00;99545.53;5011007;28;20031;-58
2021/10/28 02:07:16;;;;;;;14.13;8.80;;;;;;;2.39;100.00;99547.28;5015279;28;20088;-58
2021/10/28 02:09:41;;;;;;;15.00;9.03;;;;;;;2.38;100.00;99545.56;5014430;28;20033;-57
2021/10/28 02:12:07;;;;;;;15.47;9.17;;;;;;;2.37;100.00;99543.84;5010194;28;20070;-57
2021/10/28 02:14:33;;;;;;;12.83;8.70;;;;;;;2.32;100.00;99536.94;5009236;28;20027;-59
2021/10/28 02:16:58;;;;;;;15.43;10.10;;;;;;;2.38;100.00;99534.59;5019009;28;20119;-54
2021/10/28 02:19:23;;;;;;;14.00;9.57;;;;;;;2.33;100.00;99533.59;5015458;28;20022;-57
2021/10/28 02:21:49;;;;;;;15.27;9.40;;;;;;;2.31;100.00;99538.63;5013777;28;20124;-58
2021/10/28 02:24:14;;;;;;;15.20;9.27;;;;;;;2.29;100.00;99535.19;5003004;28;20092;-58
2021/10/28 02:26:39;;;;;;;15.57;9.60;;;;;;;2.24;100.00;99517.34;5010434;28;20430;-58
2021/10/28 02:29:05;;;;;;;20.07;10.30;;;;;;;2.29;100.00;99535.19;5009468;28;20141;-58
2021/10/28 02:31:33;;;;;;;14.37;9.70;;;;;;;2.24;100.00;99535.06;5014791;28;20028;-56
2021/10/28 02:33:59;;;;;;;14.93;9.70;;;;;;;2.21;100.00;99534.97;5010374;28;20033;-57
2021/10/28 02:36:25;;;;;;;16.53;10.63;;;;;;;2.13;100.00;99530.50;5007785;28;20141;-57
2021/10/28 02:38:50;;;;;;;18.43;10.17;;;;;;;2.12;100.00;99531.34;5016456;28;20415;-59
2021/10/28 02:41:16;;;;;;;18.03;10.93;;;;;;;2.17;100.00;99532.28;5014372;28;20112;-57
2021/10/28 02:43:42;;;;;;;16.70;9.67;;;;;;;2.15;100.00;99536.47;5015115;28;20062;-58
2021/10/28 02:46:08;;;;;;;17.83;10.37;;;;;;;2.12;100.00;99542.28;5013064;28;20083;-57
2021/10/28 02:48:34;;;;;;;14.67;9.13;;;;;;;2.06;100.00;99526.94;5014546;28;20030;-56
2021/10/28 02:50:59;;;;;;;16.30;9.90;;;;;;;2.02;100.00;99525.13;5005341;28;20044;-56
2021/10/28 02:53:25;;;;;;;16.77;9.23;;;;;;;1.97;100.00;99525.81;5011643;28;20034;-57
2021/10/28 02:55:50;;;;;;;15.43;9.83;;;;;;;1.93;100.00;99521.47;5009955;28;20133;-57
2021/10/28 02:58:17;;;;;;;16.13;9.17;;;;;;;1.96;100.00;99529.16;5015550;28;20025;-57
2021/10/28 03:00:43;;;;;;;17.80;10.13;;;;;;;1.93;100.00;99529.94;5009684;28;20592;-56
2021/10/28 03:03:10;;;;;;;17.90;10.17;;;;;;;1.94;100.00;99526.59;5007537;28;20034;-54
2021/10/28 03:05:36;;;;;;;14.17;9.83;;;;;;;1.93;100.00;99526.53;5009018;28;20506;-57
2021/10/28 03:08:02;;;;;;;14.50;9.63;;;;;;;1.91;100.00;99523.13;5019066;28;20508;-54
2021/10/28 03:10:27;;;;;;;13.10;8.93;;;;;;;1.84;100.00;99517.00;5012103;28;20061;-56
2021/10/28 03:12:54;;;;;;;14.60;9.67;;;;;;;1.81;100.00;99517.78;5008219;28;20488;-58
2021/10/28 03:15:21;;;;;;;14.13;9.40;;;;;;;1.79;100.00;99526.97;5007246;28;20062;-57
2021/10/28 03:25:49;;;;;;;27.50;9.40;;;;;;;1.68;100.00;99522.41;5013779;28;20176;-56
2021/10/28 03:28:19;;;;;;;15.90;10.30;;;;;;;1.69;100.00;99519.09;5008406;28;20497;-57
2021/10/28 03:30:45;;;;;;;15.20;10.70;;;;;;;1.67;100.00;99523.22;5007074;28;20034;-54
2021/10/28 03:33:18;;;;;;;13.87;9.70;;;;;;;1.64;100.00;99526.53;5006603;28;20469;-57
2021/10/28 03:35:46;;;;;;;15.20;9.40;;;;;;;1.59;100.00;99528.06;5010726;28;20026;-54
2021/10/28 03:38:27;;;;;;;17.90;10.93;;;;;;;1.54;100.00;99527.03;5008821;28;20516;-54
2021/10/28 03:51:55;;;;;;;18.67;11.20;;;;;;;1.71;100.00;99533.47;5008928;28;20520;-56
2021/10/28 04:29:28;;;;;;;61.33;23.20;;;;;;;3.12;100.00;99539.09;5011564;28;20045;-55
2021/10/28 04:31:54;;;;;;;102.37;25.97;;;;;;;3.14;100.00;99537.47;5007678;28;20052;-54
2021/10/28 04:34:20;;;;;;;66.10;23.07;;;;;;;3.11;100.00;99528.09;5005301;28;20041;-54
2021/10/28 04:36:45;;;;;;;73.70;24.57;;;;;;;3.21;100.00;99537.66;5008370;28;20026;-55
2021/10/28 04:39:11;;;;;;;82.07;25.40;;;;;;;3.26;100.00;99531.84;5009125;28;20045;-55
2021/10/28 04:41:38;;;;;;;35.77;21.97;;;;;;;3.35;100.00;99527.00;5011110;28;20112;-52
2021/10/28 04:44:07;;;;;;;31.10;20.07;;;;;;;3.42;100.00;99529.72;5012917;28;20046;-57
2021/10/28 04:46:33;;;;;;;84.53;23.10;;;;;;;3.51;100.00;99535.00;5001520;28;20131;-55
2021/10/28 04:48:59;;;;;;;29.37;19.20;;;;;;;3.50;100.00;99532.41;5010760;28;20516;-53
2021/10/28 04:51:24;;;;;;;81.70;24.87;;;;;;;3.53;100.00;99535.03;5013659;28;20025;-55
2021/10/28 04:53:49;;;;;;;127.50;27.23;;;;;;;3.50;100.00;99532.41;5013502;28;20037;-56
2021/10/28 04:56:15;;;;;;;49.53;22.90;;;;;;;3.51;100.00;99524.88;5006322;28;20050;-55
2021/10/28 04:58:40;;;;;;;61.37;20.30;;;;;;;3.61;100.00;99533.53;5006499;28;20033;-53
2021/10/28 05:01:06;;;;;;;59.60;20.50;;;;;;;3.52;100.00;99520.66;5005886;28;20026;-57
2021/10/28 05:03:31;;;;;;;30.10;18.93;;;;;;;3.57;100.00;99526.66;5010365;28;20030;-57
2021/10/28 05:05:57;;;;;;;30.17;19.37;;;;;;;3.54;100.00;99530.00;5007592;28;20124;-54
2021/10/28 05:08:22;;;;;;;27.47;18.10;;;;;;;3.59;100.00;99528.44;5014945;28;20025;-54
2021/10/28 05:10:48;;;;;;;32.93;19.53;;;;;;;3.57;100.00;99529.19;5011083;28;20032;-57
2021/10/28 05:13:15;;;;;;;56.57;20.33;;;;;;;3.53;100.00;99528.28;5000419;28;20041;-57
2021/10/28 05:15:48;;;;;;;82.10;21.07;;;;;;;3.63;100.00;99536.97;5010318;28;20037;-56
2021/10/28 05:18:15;;;;;;;30.00;16.73;;;;;;;3.53;100.00;99532.50;5012627;28;20384;-57
2021/10/28 05:20:40;;;;;;;31.10;16.67;;;;;;;3.48;100.00;99536.63;5008034;28;20496;-56
2021/10/28 05:23:07;;;;;;;33.67;19.00;;;;;;;3.47;100.00;99540.81;5007048;28;20060;-53
2021/10/28 05:25:32;;;;;;;44.33;19.03;;;;;;;3.44;100.00;99525.53;5001264;28;20662;-56
2021/10/28 05:27:59;;;;;;;27.90;17.90;;;;;;;3.53;100.00;99542.63;5013442;28;20026;-55
2021/10/28 05:30:24;;;;;;;33.93;19.43;;;;;;;3.56;100.00;99543.59;5009138;28;20447;-56
2021/10/28 05:32:50;;;;;;;43.93;18.47;;;;;;;3.53;100.00;99543.47;5007980;28;20125;-55
2021/10/28 05:35:17;;;;;;;38.30;14.90;;;;;;;3.51;100.00;99542.59;5004933;28;20026;-56
2021/10/28 05:37:43;;;;;;;49.77;15.07;;;;;;;3.41;100.00;99544.88;5010678;28;20542;-55
2021/10/28 05:40:10;;;;;;;72.77;16.37;;;;;;;3.29;100.00;99547.97;5006146;28;20114;-54
2021/10/28 05:42:38;;;;;;;53.40;16.73;;;;;;;3.19;100.00;99541.81;5007885;28;20076;-58
2021/10/28 05:45:03;;;;;;;50.27;17.53;;;;;;;3.25;100.00;99555.47;5011465;28;20091;-58
2021/10/28 05:47:29;;;;;;;75.80;18.30;;;;;;;3.17;100.00;99552.75;5012368;28;20045;-57
2021/10/28 05:49:54;;;;;;;62.57;16.47;;;;;;;3.17;100.00;99551.06;5006962;28;20543;-55
2021/10/28 05:52:20;;;;;;;71.20;20.13;;;;;;;3.13;100.00;99549.28;5003452;28;20116;-57
2021/10/28 05:54:46;;;;;;;21.67;14.80;;;;;;;3.20;100.00;99557.88;5009039;28;20116;-57
2021/10/28 05:57:11;;;;;;;69.37;19.70;;;;;;;3.25;100.00;99556.31;5008098;28;20046;-54
2021/10/28 05:59:36;;;;;;;44.83;18.57;;;;;;;3.35;100.00;99558.28;5013907;28;20095;-54
2021/10/28 06:02:02;;;;;;;29.33;17.77;;;;;;;3.33;100.00;99556.50;5007854;28;20041;-56
2021/10/28 06:04:27;;;;;;;81.93;22.93;;;;;;;3.43;100.00;99561.84;5003323;28;20022;-57
2021/10/28 06:06:53;;;;;;;63.10;21.23;;;;;;;3.41;100.00;99560.09;5009911;28;20033;-53
2021/10/28 06:09:18;;;;;;;42.50;20.53;;;;;;;3.46;100.00;99564.44;5010082;28;20114;-54
2021/10/28 06:11:44;;;;;;;62.00;22.23;;;;;;;3.48;100.00;99550.13;5010094;28;20041;-54
2021/10/28 06:14:10;;;;;;;36.17;19.87;;;;;;;3.55;100.00;99556.22;5006598;28;20436;-55
2021/10/28 06:16:40;;;;;;;55.93;21.07;;;;;;;3.56;100.00;99563.88;5004622;28;20112;-57
2021/10/28 06:19:06;;;;;;;80.53;20.57;;;;;;;3.58;100.00;99563.88;5008826;28;20030;-56
2021/10/28 06:21:31;;;;;;;32.53;17.97;;;;;;;3.58;100.00;99556.28;5006620;28;20026;-55
2021/10/28 06:23:57;;;;;;;27.90;17.73;;;;;;;3.69;100.00;99563.31;5010860;28;20041;-56
2021/10/28 06:26:22;;;;;;;27.97;18.57;;;;;;;3.72;100.00;99554.94;5013119;28;20038;-54
2021/10/28 06:28:48;;;;;;;25.50;15.97;;;;;;;3.75;100.00;99561.72;5006561;28;20030;-57
2021/10/28 06:31:14;;;;;;;32.67;17.13;;;;;;;3.83;100.00;99563.63;5004503;28;20477;-56
2021/10/28 06:33:47;;;;;;;25.03;16.33;;;;;;;3.90;100.00;99560.41;5006776;28;20507;-57
2021/10/28 06:36:15;;;;;;;42.40;17.30;;;;;;;3.98;100.00;99560.59;5004011;28;20026;-53
2021/10/28 06:38:40;;;;;;;67.37;18.77;;;;;;;3.88;100.00;99558.66;5002268;28;20022;-56
2021/10/28 06:41:06;;;;;;;26.63;14.97;;;;;;;3.79;100.00;99531.41;5002783;28;20096;-56
2021/10/28 06:43:32;;;;;;;67.00;17.20;;;;;;;3.96;100.00;99565.63;5007441;28;20041;-57
2021/10/28 06:45:58;;;;;;;28.63;15.13;;;;;;;3.94;100.00;99561.34;5008924;28;20116;-54
2021/10/28 06:48:24;;;;;;;25.63;14.53;;;;;;;4.02;100.00;99567.44;5004084;28;20049;-53
2021/10/28 06:50:53;;;;;;;30.93;16.83;;;;;;;4.06;100.00;99571.75;5004359;28;20038;-55
2021/10/28 06:53:30;;;;;;;59.70;16.50;;;;;;;4.02;100.00;99575.06;5008541;28;20038;-54
2021/10/28 06:56:35;;;;;;;52.43;15.70;;;;;;;3.97;100.00;99571.53;5008809;28;20550;-53
2021/10/28 07:04:24;;;;;;;21.53;15.77;;;;;;;4.15;100.00;99574.50;5009133;28;20025;-53
2021/10/28 07:06:50;;;;;;;48.17;17.60;;;;;;;4.16;100.00;99581.25;5006206;28;20089;-52
2021/10/28 07:09:29;;;;;;;44.03;15.93;;;;;;;4.19;100.00;99567.81;5007741;28;20055;-52
2021/10/28 07:12:08;;;;;;;29.00;16.47;;;;;;;4.34;100.00;99575.72;5009802;28;20048;-54
2021/10/28 07:14:34;;;;;;;24.00;17.27;;;;;;;4.50;100.00;99578.59;5003872;28;20037;-52
2021/10/28 07:17:26;;;;;;;28.30;18.00;;;;;;;4.60;100.00;99575.44;5006711;28;20677;-54
2021/10/28 07:20:00;;;;;;;49.33;19.15;;;;;;;4.72;100.00;99576.50;5008757;28;20046;-53
2021/10/28 07:32:51;;;;;;;24.57;17.37;;;;;;;4.79;100.00;99569.03;5011764;28;20572;-52
2021/10/28 08:05:42;;;;;;;30.23;19.27;;;;;;;6.05;100.00;99563.53;5002155;28;20052;-54
2021/10/28 08:13:36;;;;;;;22.20;17.03;;;;;;;6.48;100.00;99562.41;5007071;28;20041;-57
2021/10/28 08:19:07;;;;;;;28.37;18.60;;;;;;;6.58;100.00;99559.09;5011193;28;20071;-57
2021/10/28 08:29:21;;;;;;;27.27;19.50;;;;;;;6.71;100.00;99538.03;5005800;28;20056;-56
2021/10/28 08:31:48;;;;;;;22.67;17.50;;;;;;;6.88;100.00;99539.06;5006306;28;20034;-57
2021/10/28 08:34:13;;;;;;;23.33;17.47;;;;;;;6.56;100.00;99540.41;5004704;28;20034;-56
2021/10/28 08:36:40;;;;;;;31.03;21.23;;;;;;;6.72;100.00;99541.44;5010602;28;20036;-52
2021/10/28 08:39:07;;;;;;;51.77;40.10;;;;;;;6.57;100.00;99541.28;5008509;28;20021;-56
2021/10/28 08:41:34;;;;;;;28.57;21.77;;;;;;;6.85;100.00;99530.53;5019204;28;20030;-54
2021/10/28 08:44:01;;;;;;;25.43;18.07;;;;;;;6.89;100.00;99527.19;5005827;28;20073;-53
2021/10/28 08:46:28;;;;;;;25.87;18.00;;;;;;;6.96;100.00;99528.94;5008893;28;20123;-53
2021/10/28 08:48:57;;;;;;;25.63;17.57;;;;;;;7.22;100.00;99524.94;5005256;28;20034;-54
2021/10/28 08:51:47;;;;;;;24.93;17.53;;;;;;;7.30;100.00;99518.19;5005705;28;20781;-60
2021/10/28 09:25:09;;;;;;;28.50;19.07;;;;;;;8.47;100.00;99503.63;5002675;28;20041;-55
2021/10/28 09:27:44;;;;;;;26.17;18.43;;;;;;;8.64;100.00;99494.31;5005898;28;20078;-54
2021/10/28 09:30:15;;;;;;;27.05;19.48;;;;;;;8.24;100.00;99495.81;5010531;28;20034;-55
2021/10/28 09:32:51;;;;;;;30.37;21.13;;;;;;;8.03;100.00;99500.84;5001999;28;20041;-53
2021/10/28 09:43:35;;;;;;;31.17;20.67;;;;;;;8.13;100.00;99491.53;5007496;28;20036;-55
2021/10/28 09:46:52;;;;;;;30.73;20.77;;;;;;;8.53;100.00;99472.94;4961196;28;20488;-54
2021/10/28 09:54:46;;;;;;;27.57;19.23;;;;;;;9.51;100.00;99474.72;5005801;28;20041;-53
2021/10/28 10:00:08;;;;;;;33.15;22.83;;;;;;;9.92;100.00;99463.56;5005670;28;20126;-53
2021/10/28 10:05:14;;;;;;;31.40;21.33;;;;;;;10.31;100.00;99454.91;5010012;28;20033;-56
2021/10/28 10:07:41;;;;;;;28.10;20.27;;;;;;;10.50;100.00;99456.50;5008131;28;20033;-56
2021/10/28 10:10:07;;;;;;;31.52;21.17;;;;;;;10.66;100.00;99447.84;5001147;28;20096;-53
2021/10/28 10:12:32;;;;;;;34.00;20.77;;;;;;;10.80;100.00;99448.63;5009869;28;20123;-56
2021/10/28 10:15:01;;;;;;;26.83;19.00;;;;;;;10.92;100.00;99439.97;5006585;28;20041;-54
2021/10/28 10:17:27;;;;;;;25.17;19.17;;;;;;;11.12;100.00;99442.41;5002785;28;20058;-53
2021/10/28 10:19:56;;;;;;;23.23;18.98;;;;;;;11.38;100.00;99435.31;5013344;28;20517;-55
2021/10/28 10:25:32;;;;;;;25.00;18.40;;;;;;;11.78;100.00;99428.94;5012576;28;20491;-54
2021/10/28 12:44:29;;;;;;;12.35;10.50;;;;;;;14.60;64.68;99302.94;5014031;28;20040;-56
2021/10/28 12:47:27;;;;;;;13.55;10.25;;;;;;;14.59;64.40;99298.69;5013964;28;20042;-56
2021/10/28 13:52:41;;;;;;;9.20;8.30;;;;;;;14.05;59.05;99267.25;4997932;28;20459;-52
2021/10/28 14:01:01;;;;;;;12.27;8.73;;;;;;;13.97;58.23;99258.84;4921130;29;20036;-55
2021/10/28 14:25:25;;;;;;;13.13;9.27;;;;;;;13.56;59.12;99261.47;4916418;29;20051;-56
2021/10/28 15:35:38;;;;;;;24.80;15.32;;;;;;;11.07;83.95;99236.31;5009511;28;20601;-54
2021/10/28 15:38:09;;;;;;;19.30;15.57;;;;;;;10.94;85.70;99240.72;5006947;28;20054;-56
2021/10/28 15:56:31;;;;;;;22.10;15.98;;;;;;;10.15;94.95;99235.44;5011072;28;20058;-55
2021/10/28 15:59:35;;;;;;;20.95;17.88;;;;;;;10.01;96.25;99241.50;5008254;28;20547;-56
2021/10/28 16:23:22;;;;;;;25.23;19.50;;;;;;;9.46;100.00;99235.03;5008515;28;20037;-57
2021/10/28 16:25:48;;;;;;;23.33;17.98;;;;;;;9.34;100.00;99227.38;5000943;28;20063;-57
2021/10/28 16:28:17;;;;;;;30.08;18.92;;;;;;;9.36;100.00;99228.25;5002987;28;20037;-57
2021/10/28 16:30:44;;;;;;;28.27;18.83;;;;;;;9.26;100.00;99239.38;5008807;28;20033;-55
2021/10/28 16:33:10;;;;;;;27.48;19.88;;;;;;;9.21;100.00;99239.38;5006351;28;20357;-56
2021/10/28 16:35:35;;;;;;;23.42;18.58;;;;;;;9.14;100.00;99243.69;5008486;28;20032;-57
2021/10/28 16:38:03;;;;;;;25.83;18.48;;;;;;;9.12;100.00;99244.56;5007697;28;20029;-57
2021/10/28 16:40:29;;;;;;;27.63;19.50;;;;;;;9.08;100.00;99238.56;5005061;28;20597;-56
2021/10/28 16:42:54;;;;;;;27.38;20.20;;;;;;;9.07;100.00;99239.44;5009928;28;20117;-56
2021/10/28 16:45:20;;;;;;;26.73;19.83;;;;;;;9.04;100.00;99242.00;5005440;28;20366;-57
2021/10/28 16:47:46;;;;;;;27.40;19.40;;;;;;;8.89;100.00;99234.38;5010274;28;20472;-53
2021/10/28 16:50:13;;;;;;;26.30;19.13;;;;;;;8.85;100.00;99237.81;5007711;28;20052;-53
2021/10/28 16:52:39;;;;;;;28.53;20.27;;;;;;;8.82;100.00;99237.81;5007531;28;20044;-54
2021/10/28 16:55:05;;;;;;;29.00;19.73;;;;;;;8.74;100.00;99238.69;5006984;28;20021;-54
2021/10/28 16:57:31;;;;;;;28.97;19.70;;;;;;;8.73;100.00;99239.53;5008799;28;20046;-53
2021/10/28 16:59:56;;;;;;;31.03;20.70;;;;;;;8.69;100.00;99244.66;5010227;28;20092;-55
2021/10/28 17:02:21;;;;;;;25.97;18.33;;;;;;;8.63;100.00;99248.91;5005603;28;20484;-51
2021/10/28 17:04:47;;;;;;;28.63;20.00;;;;;;;8.54;100.00;99248.91;5003374;28;20057;-54
2021/10/28 17:07:13;;;;;;;28.33;20.87;;;;;;;8.56;100.00;99253.19;5009678;28;20061;-52
2021/10/28 17:09:39;;;;;;;25.70;19.67;;;;;;;8.52;100.00;99250.66;5005315;28;20036;-52
2021/10/28 17:12:05;;;;;;;32.17;21.90;;;;;;;8.43;100.00;99250.66;5004824;28;20455;-52
2021/10/28 17:14:30;;;;;;;28.53;20.43;;;;;;;8.35;100.00;99248.09;5009350;28;20034;-53
2021/10/28 17:16:55;;;;;;;30.50;21.70;;;;;;;8.33;100.00;99254.91;5007381;28;20069;-55
2021/10/28 17:19:22;;;;;;;31.30;20.87;;;;;;;8.24;100.00;99247.19;5007344;28;20032;-51
2021/10/28 17:21:49;;;;;;;28.53;21.43;;;;;;;8.17;100.00;99250.63;5003088;28;20079;-52
2021/10/28 17:24:34;;;;;;;31.63;21.40;;;;;;;8.11;100.00;99246.34;5008216;28;20033;-55
2021/10/28 17:27:00;;;;;;;30.73;21.27;;;;;;;8.13;100.00;99249.75;5006742;28;20417;-53
2021/10/28 17:29:25;;;;;;;28.07;20.63;;;;;;;8.13;100.00;99243.81;5007101;28;20025;-55
2021/10/28 17:31:55;;;;;;;30.53;21.67;;;;;;;8.08;100.00;99243.78;5000644;28;20034;-53
2021/10/28 17:34:21;;;;;;;28.53;21.87;;;;;;;8.01;100.00;99249.75;5002560;28;20569;-54
2021/10/28 17:36:52;;;;;;;30.77;21.67;;;;;;;7.94;100.00;99250.56;5006893;28;20120;-55
2021/10/28 17:39:17;;;;;;;31.97;23.30;;;;;;;7.92;100.00;99252.28;5005552;28;20436;-55
2021/10/28 17:41:42;;;;;;;32.27;21.50;;;;;;;7.83;100.00;99249.72;5005857;28;20549;-52
2021/10/28 17:44:08;;;;;;;31.20;21.73;;;;;;;7.80;100.00;99254.81;5005581;28;20037;-54
2021/10/28 17:46:33;;;;;;;32.63;22.23;;;;;;;7.72;100.00;99253.97;5005937;28;20030;-53
2021/10/28 17:48:59;;;;;;;32.13;21.70;;;;;;;7.71;100.00;99252.25;5006947;28;20041;-56
2021/10/28 17:51:25;;;;;;;32.13;21.77;;;;;;;7.62;100.00;99254.78;5000911;28;20030;-52
2021/10/28 17:53:51;;;;;;;32.73;22.70;;;;;;;7.58;100.00;99253.06;5008862;28;20095;-55
2021/10/28 17:56:18;;;;;;;34.03;23.40;;;;;;;7.62;100.00;99249.66;5007603;28;20355;-57
2021/10/28 17:58:44;;;;;;;32.53;22.17;;;;;;;7.56;100.00;99247.09;5009774;28;20033;-53
2021/10/28 18:01:11;;;;;;;32.43;20.83;;;;;;;7.52;100.00;99251.34;5003257;28;20048;-55
2021/10/28 18:03:36;;;;;;;31.70;21.83;;;;;;;7.47;100.00;99250.47;5004550;28;20034;-56
2021/10/28 18:06:02;;;;;;;36.13;22.60;;;;;;;7.53;100.00;99247.94;5007468;28;20053;-53
2021/10/28 18:08:28;;;;;;;34.43;23.57;;;;;;;7.55;100.00;99251.38;5002479;28;20026;-52
2021/10/28 18:10:53;;;;;;;35.67;23.77;;;;;;;7.46;100.00;99242.81;5004166;28;20103;-54
2021/10/28 18:13:19;;;;;;;32.77;22.80;;;;;;;7.43;100.00;99250.44;5008884;28;20042;-53
2021/10/28 18:15:46;;;;;;;30.87;22.73;;;;;;;7.37;100.00;99253.84;5012931;28;20044;-53
2021/10/28 18:18:11;;;;;;;33.33;22.87;;;;;;;7.27;100.00;99250.41;5008101;28;20108;-52
2021/10/28 18:20:37;;;;;;;33.83;23.67;;;;;;;7.26;100.00;99248.69;5004484;28;20037;-53
2021/10/28 18:23:04;;;;;;;36.27;23.27;;;;;;;7.20;100.00;99247.81;5006213;28;20026;-53
2021/10/28 18:25:30;;;;;;;34.27;24.53;;;;;;;7.15;100.00;99249.50;5009684;28;20037;-55
2021/10/28 18:27:56;;;;;;;38.37;24.57;;;;;;;7.10;100.00;99243.53;5006497;28;20653;-53
2021/10/28 18:30:23;;;;;;;32.87;24.43;;;;;;;7.03;100.00;99240.09;5010104;28;20056;-55
2021/10/28 18:32:49;;;;;;;32.83;25.00;;;;;;;6.97;100.00;99245.16;5011076;28;20037;-53
2021/10/28 18:35:15;;;;;;;37.73;25.87;;;;;;;6.91;100.00;99244.28;5009202;28;20034;-53
2021/10/28 18:37:44;;;;;;;34.77;25.40;;;;;;;6.91;100.00;99241.75;5009420;28;20025;-54
2021/10/28 18:40:11;;;;;;;33.40;23.80;;;;;;;6.81;100.00;99236.59;5005922;28;20032;-52
2021/10/28 18:42:37;;;;;;;35.60;24.73;;;;;;;6.82;100.00;99247.63;5018065;28;20101;-52
2021/10/28 18:45:05;;;;;;;38.23;25.03;;;;;;;6.78;100.00;99239.13;5010108;28;20064;-52
2021/10/28 18:47:31;;;;;;;38.20;24.60;;;;;;;6.72;100.00;99236.53;5010541;28;20038;-52
2021/10/28 18:49:57;;;;;;;37.40;24.77;;;;;;;6.69;100.00;99235.66;5006334;28;20049;-53
2021/10/28 18:52:22;;;;;;;38.07;24.93;;;;;;;6.62;100.00;99233.94;5017103;28;20471;-56
2021/10/28 18:54:50;;;;;;;39.83;26.87;;;;;;;6.59;100.00;99238.97;5017280;28;20492;-55
2021/10/28 18:57:17;;;;;;;34.67;25.07;;;;;;;6.57;100.00;99241.53;5008227;28;20045;-52
2021/10/28 18:59:43;;;;;;;39.40;26.70;;;;;;;6.48;100.00;99236.38;5009181;28;20030;-54
2021/10/28 19:02:09;;;;;;;38.37;26.50;;;;;;;6.48;100.00;99243.16;5012157;28;20072;-56
2021/10/28 19:04:36;;;;;;;43.07;26.57;;;;;;;6.46;100.00;99235.50;5009761;28;20056;-57
2021/10/28 19:07:02;;;;;;;39.77;27.50;;;;;;;6.40;100.00;99232.94;5008476;28;20089;-52
2021/10/28 19:09:28;;;;;;;38.03;26.83;;;;;;;6.36;100.00;99226.09;5013582;28;20044;-54
2021/10/28 19:11:53;;;;;;;40.27;26.00;;;;;;;6.33;100.00;99237.09;5010767;28;20433;-52
2021/10/28 19:14:19;;;;;;;45.97;29.53;;;;;;;6.34;100.00;99227.78;5006583;28;20392;-53
2021/10/28 19:16:44;;;;;;;43.57;28.90;;;;;;;6.33;100.00;99234.56;5006637;28;20030;-53
2021/10/28 19:19:11;;;;;;;42.00;29.60;;;;;;;6.32;100.00;99232.03;5010306;28;20041;-52
2021/10/28 19:21:36;;;;;;;44.37;27.63;;;;;;;6.28;100.00;99231.13;5011438;28;20508;-55
2021/10/28 19:24:02;;;;;;;42.87;30.47;;;;;;;6.29;100.00;99235.38;5009073;28;20061;-52
2021/10/28 19:26:28;;;;;;;40.57;29.47;;;;;;;6.27;100.00;99239.63;5005748;28;20579;-53
2021/10/28 19:28:53;;;;;;;45.03;29.70;;;;;;;6.24;100.00;99229.38;5010295;28;20025;-53
2021/10/28 19:31:23;;;;;;;43.37;29.20;;;;;;;6.25;100.00;99227.69;5010130;28;20479;-52
2021/10/28 19:33:51;;;;;;;47.93;31.30;;;;;;;6.29;100.00;99232.84;5004337;28;20060;-54
2021/10/28 19:39:22;;;;;;;42.13;29.87;;;;;;;6.13;100.00;99231.00;5004949;28;20668;-52
2021/10/28 19:45:03;;;;;;;47.77;30.23;;;;;;;6.04;100.00;99219.88;5005526;28;20033;-52
2021/10/28 19:47:20;;;;;;;47.77;30.43;;;;;;;5.92;100.00;99228.28;5007851;28;20027;-52
2021/10/28 19:49:46;;;;;;;51.07;32.83;;;;;;;5.96;100.00;99235.09;5011227;28;20029;-51
2021/10/28 19:52:16;;;;;;;49.73;32.47;;;;;;;5.94;100.00;99229.16;5005564;28;20458;-53
2021/10/28 19:54:43;;;;;;;48.60;33.20;;;;;;;5.81;100.00;99230.69;5005212;28;20395;-55
2021/10/28 19:57:16;;;;;;;45.30;29.93;;;;;;;5.68;100.00;99228.88;5010742;28;20327;-53
2021/10/28 19:59:47;;;;;;;48.90;31.17;;;;;;;5.66;100.00;99230.53;5010927;28;20036;-52
2021/10/28 20:02:19;;;;;;;48.43;31.33;;;;;;;5.64;100.00;99234.78;5006940;28;20034;-52